createdAt,value
2022-08-04T00:01:50.862Z,23.60
2022-08-04T00:04:29.273Z,23.60
2022-08-04T00:07:09.301Z,23.60
2022-08-04T00:09:42.701Z,23.60
2022-08-04T00:12:12.857Z,23.60
2022-08-04T00:14:49.374Z,23.60
2022-08-04T00:17:21.182Z,23.60
2022-08-04T00:19:50.126Z,23.50
2022-08-04T00:22:23.222Z,23.50
2022-08-04T00:24:51.156Z,23.40
2022-08-04T00:27:19.383Z,23.40
2022-08-04T00:29:48.451Z,23.30
2022-08-04T00:32:33.821Z,23.30
2022-08-04T00:35:03.814Z,23.20
2022-08-04T00:37:34.831Z,23.20
2022-08-04T00:40:07.470Z,23.20
2022-08-04T00:42:58.464Z,23.10
2022-08-04T00:46:10.913Z,23.10
2022-08-04T00:48:58.032Z,23.10
2022-08-04T00:51:38.613Z,23.00
2022-08-04T00:54:22.209Z,23.00
2022-08-04T00:57:34.055Z,23.00
2022-08-04T01:00:07.753Z,22.90
2022-08-04T01:02:40.589Z,22.80
2022-08-04T01:05:12.356Z,22.80
2022-08-04T01:08:13.534Z,22.80
2022-08-04T01:10:58.017Z,22.60
2022-08-04T01:13:53.111Z,22.60
2022-08-04T01:16:25.770Z,22.50
2022-08-04T01:18:59.966Z,22.40
2022-08-04T01:22:01.495Z,22.40
2022-08-04T01:25:11.182Z,22.30
2022-08-04T01:27:58.612Z,22.30
2022-08-04T01:30:30.563Z,22.30
2022-08-04T01:33:03.599Z,22.20
2022-08-04T01:35:47.192Z,22.30
2022-08-04T01:38:21.417Z,22.30
2022-08-04T01:40:54.379Z,22.30
2022-08-04T01:43:22.467Z,22.30
2022-08-04T01:45:57.908Z,22.40
2022-08-04T01:48:27.231Z,22.30
2022-08-04T01:50:58.159Z,22.30
2022-08-04T01:53:32.967Z,22.30
2022-08-04T01:56:02.779Z,22.30
2022-08-04T01:58:33.024Z,22.30
2022-08-04T02:01:08.193Z,22.20
2022-08-04T02:04:18.525Z,22.20
2022-08-04T02:06:39.047Z,22.20
2022-08-04T02:09:17.855Z,22.10
2022-08-04T02:11:57.346Z,22.00
2022-08-04T02:14:45.666Z,22.00
2022-08-04T02:17:18.682Z,21.90
2022-08-04T02:20:00.873Z,21.80
2022-08-04T02:22:30.010Z,21.80
2022-08-04T02:25:02.634Z,21.70
2022-08-04T02:27:59.827Z,21.60
2022-08-04T02:30:27.233Z,21.50
2022-08-04T02:32:59.007Z,21.40
2022-08-04T02:35:28.644Z,21.30
2022-08-04T02:38:05.748Z,21.30
2022-08-04T02:40:34.928Z,21.30
2022-08-04T02:43:07.172Z,21.30
2022-08-04T02:45:38.051Z,21.30
2022-08-04T02:48:30.439Z,21.20
2022-08-04T02:51:00.250Z,21.20
2022-08-04T02:53:30.359Z,21.10
2022-08-04T02:56:03.607Z,21.00
2022-08-04T02:58:35.296Z,21.00
2022-08-04T03:01:03.342Z,21.00
2022-08-04T03:03:40.600Z,21.00
2022-08-04T03:06:48.042Z,21.00
2022-08-04T03:10:01.023Z,21.00
2022-08-04T03:13:08.607Z,21.00
2022-08-04T03:16:38.533Z,21.00
2022-08-04T03:19:45.725Z,21.00
2022-08-04T03:22:59.764Z,20.90
2022-08-04T03:25:56.779Z,20.90
2022-08-04T03:28:48.994Z,21.00
2022-08-04T03:31:46.623Z,21.00
2022-08-04T03:34:33.456Z,20.90
2022-08-04T03:37:18.003Z,20.90
2022-08-04T03:40:21.881Z,20.90
2022-08-04T03:43:58.000Z,20.90
2022-08-04T03:46:38.199Z,20.80
2022-08-04T03:49:39.617Z,20.80
2022-08-04T03:52:39.360Z,20.80
2022-08-04T03:55:31.733Z,20.70
2022-08-04T03:58:44.422Z,20.70
2022-08-04T04:01:26.937Z,20.70
2022-08-04T04:04:29.012Z,20.80
2022-08-04T04:07:39.318Z,20.80
2022-08-04T04:10:28.954Z,20.80
2022-08-04T04:13:25.984Z,20.80
2022-08-04T04:16:21.284Z,20.70
2022-08-04T04:19:08.730Z,20.70
2022-08-04T04:21:59.184Z,20.60
2022-08-04T04:24:50.699Z,20.60
2022-08-04T04:27:30.947Z,20.50
2022-08-04T04:30:12.385Z,20.60
2022-08-04T04:32:55.974Z,20.50
2022-08-04T04:35:37.941Z,20.60
2022-08-04T04:38:31.820Z,20.60
2022-08-04T04:41:27.004Z,20.70
2022-08-04T04:44:43.990Z,20.70
2022-08-04T04:48:09.253Z,20.80
2022-08-04T04:50:15.744Z,20.80
2022-08-04T04:52:50.027Z,20.90
2022-08-04T04:55:22.593Z,21.00
2022-08-04T04:57:55.530Z,21.00
2022-08-04T05:00:24.364Z,21.10
2022-08-04T05:03:18.196Z,21.20
2022-08-04T05:06:01.615Z,21.30
2022-08-04T05:09:14.639Z,21.40
2022-08-04T05:12:18.522Z,21.50
2022-08-04T05:15:09.574Z,21.60
2022-08-04T05:17:40.935Z,21.60
2022-08-04T05:20:12.133Z,21.60
2022-08-04T05:22:44.554Z,21.70
2022-08-04T05:25:22.397Z,21.70
2022-08-04T05:27:54.268Z,21.70
2022-08-04T05:30:27.638Z,21.80
2022-08-04T05:33:00.105Z,21.90
2022-08-04T05:35:38.989Z,22.00
2022-08-04T05:38:27.553Z,22.20
2022-08-04T05:40:56.494Z,22.30
2022-08-04T05:43:25.312Z,22.50
2022-08-04T05:45:57.755Z,22.60
2022-08-04T05:48:26.347Z,22.70
2022-08-04T05:50:58.972Z,22.90
2022-08-04T05:53:29.940Z,23.00
2022-08-04T05:55:59.949Z,23.20
2022-08-04T05:58:31.264Z,23.40
2022-08-04T06:01:02.840Z,23.50
2022-08-04T06:03:31.793Z,23.70
2022-08-04T06:06:00.860Z,23.80
2022-08-04T06:08:30.077Z,24.00
2022-08-04T06:11:01.221Z,24.10
2022-08-04T06:13:46.636Z,24.30
2022-08-04T06:16:29.729Z,24.40
2022-08-04T06:20:02.635Z,24.60
2022-08-04T06:21:52.250Z,24.70
2022-08-04T06:24:21.909Z,24.80
2022-08-04T06:26:51.526Z,24.90
2022-08-04T06:29:24.923Z,25.00
2022-08-04T06:32:30.444Z,25.20
2022-08-04T06:34:53.069Z,25.40
2022-08-04T06:37:41.199Z,25.40
2022-08-04T06:40:30.664Z,25.60
2022-08-04T06:43:00.577Z,25.70
2022-08-04T06:45:28.814Z,25.80
2022-08-04T06:47:59.310Z,25.90
2022-08-04T06:51:26.578Z,26.00
2022-08-04T06:53:17.191Z,26.00
2022-08-04T06:55:47.748Z,26.00
2022-08-04T06:58:17.349Z,26.10
2022-08-04T07:00:47.744Z,26.20
2022-08-04T07:03:18.533Z,26.40
2022-08-04T07:05:48.555Z,26.50
2022-08-04T07:08:17.499Z,26.60
2022-08-04T07:10:46.685Z,26.70
2022-08-04T07:13:15.248Z,26.90
2022-08-04T07:15:45.822Z,26.90
2022-08-04T07:18:13.889Z,27.00
2022-08-04T07:20:44.787Z,27.10
2022-08-04T07:23:17.453Z,27.20
2022-08-04T07:25:59.911Z,27.10
2022-08-04T07:28:40.142Z,27.20
2022-08-04T07:31:32.022Z,27.50
2022-08-04T07:34:17.708Z,27.60
2022-08-04T07:36:55.069Z,27.50
2022-08-04T07:39:28.048Z,27.40
2022-08-04T07:42:02.621Z,27.70
2022-08-04T07:44:32.132Z,27.70
2022-08-04T07:47:01.545Z,27.80
2022-08-04T07:49:55.900Z,27.80
2022-08-04T07:52:19.440Z,27.70
2022-08-04T07:54:48.805Z,27.90
2022-08-04T07:57:39.770Z,28.20
2022-08-04T08:00:10.923Z,28.30
2022-08-04T08:02:39.817Z,28.30
2022-08-04T08:05:10.038Z,28.40
2022-08-04T08:07:50.629Z,28.50
2022-08-04T08:10:22.743Z,28.50
2022-08-04T08:12:52.612Z,28.60
2022-08-04T08:15:21.516Z,28.70
2022-08-04T08:17:59.129Z,28.70
2022-08-04T08:20:30.360Z,28.90
2022-08-04T08:23:00.593Z,28.90
2022-08-04T08:25:29.040Z,29.00
2022-08-04T08:27:57.056Z,29.10
2022-08-04T08:30:32.053Z,29.20
2022-08-04T08:33:02.365Z,29.30
2022-08-04T08:35:51.164Z,29.40
2022-08-04T08:38:34.306Z,29.50
2022-08-04T08:41:27.152Z,29.70
2022-08-04T08:44:19.328Z,29.70
2022-08-04T08:47:08.405Z,29.90
2022-08-04T08:50:12.000Z,29.70
2022-08-04T08:53:11.381Z,29.90
2022-08-04T08:55:49.217Z,30.10
2022-08-04T08:58:36.848Z,30.30
2022-08-04T09:01:13.330Z,30.30
2022-08-04T09:04:02.541Z,30.40
2022-08-04T09:06:51.981Z,30.50
2022-08-04T09:09:38.367Z,30.30
2022-08-04T09:12:25.659Z,30.40
2022-08-04T09:14:59.988Z,30.30
2022-08-04T09:17:31.039Z,30.50
2022-08-04T09:20:04.011Z,30.50
2022-08-04T09:22:39.323Z,30.60
2022-08-04T09:25:13.546Z,30.60
2022-08-04T09:27:51.257Z,30.60
2022-08-04T09:30:21.576Z,30.70
2022-08-04T09:32:59.867Z,30.90
2022-08-04T09:35:41.378Z,30.90
2022-08-04T09:38:20.300Z,31.10
2022-08-04T09:40:57.164Z,31.20
2022-08-04T09:44:42.937Z,31.20
2022-08-04T09:46:30.685Z,31.40
2022-08-04T09:49:03.247Z,31.50
2022-08-04T09:51:58.451Z,31.70
2022-08-04T09:54:34.959Z,31.80
2022-08-04T09:57:11.236Z,31.80
2022-08-04T09:59:49.901Z,32.00
2022-08-04T10:02:22.954Z,32.00
2022-08-04T10:04:54.278Z,32.20
2022-08-04T10:07:41.477Z,32.30
2022-08-04T10:10:20.200Z,32.50
2022-08-04T10:13:13.635Z,32.60
2022-08-04T10:15:53.300Z,32.80
2022-08-04T10:18:40.935Z,32.90
2022-08-04T10:21:17.349Z,33.00
2022-08-04T10:24:00.804Z,33.10
2022-08-04T10:26:46.437Z,33.20
2022-08-04T10:29:19.051Z,33.20
2022-08-04T10:31:56.323Z,33.30
2022-08-04T10:34:29.294Z,33.30
2022-08-04T10:37:04.225Z,33.40
2022-08-04T10:39:42.921Z,33.40
2022-08-04T10:42:22.757Z,33.60
2022-08-04T10:45:04.466Z,33.70
2022-08-04T10:47:44.875Z,33.70
2022-08-04T10:50:22.537Z,33.80
2022-08-04T10:52:58.711Z,34.00
2022-08-04T10:56:08.084Z,34.20
2022-08-04T10:58:47.854Z,34.30
2022-08-04T11:01:50.516Z,34.50
2022-08-04T11:04:27.541Z,34.80
2022-08-04T11:06:57.246Z,34.70
2022-08-04T11:09:25.385Z,34.90
2022-08-04T11:12:01.530Z,35.20
2022-08-04T11:14:36.665Z,35.10
2022-08-04T11:17:09.338Z,35.10
2022-08-04T11:19:53.339Z,35.20
2022-08-04T11:22:27.093Z,35.10
2022-08-04T11:25:05.117Z,35.30
2022-08-04T11:27:40.148Z,35.60
2022-08-04T11:30:13.433Z,35.60
2022-08-04T11:32:47.374Z,35.80
2022-08-04T11:35:32.122Z,36.00
2022-08-04T11:38:09.137Z,36.10
2022-08-04T11:41:02.724Z,36.00
2022-08-04T11:44:01.234Z,36.20
2022-08-04T11:46:31.482Z,36.30
2022-08-04T11:49:22.652Z,36.20
2022-08-04T11:51:53.922Z,36.20
2022-08-04T11:54:23.131Z,36.70
2022-08-04T11:56:53.981Z,36.70
2022-08-04T11:59:24.716Z,36.80
2022-08-04T12:02:08.631Z,36.90
2022-08-04T12:04:47.228Z,36.90
2022-08-04T12:07:33.665Z,37.20
2022-08-04T12:10:15.092Z,37.00
2022-08-04T12:12:48.863Z,37.00
2022-08-04T12:15:23.360Z,37.10
2022-08-04T12:18:03.709Z,37.20
2022-08-04T12:20:43.113Z,37.20
2022-08-04T12:23:23.066Z,37.10
2022-08-04T12:25:54.859Z,37.20
2022-08-04T12:28:46.295Z,37.40
2022-08-04T12:31:24.906Z,37.60
2022-08-04T12:34:04.469Z,37.80
2022-08-04T12:36:39.791Z,37.70
2022-08-04T12:39:12.361Z,37.80
2022-08-04T12:41:43.464Z,37.90
2022-08-04T12:44:37.227Z,38.00
2022-08-04T12:47:26.773Z,37.90
2022-08-04T12:50:00.070Z,37.80
2022-08-04T12:53:01.012Z,38.00
2022-08-04T12:55:22.715Z,38.30
2022-08-04T12:57:52.219Z,38.40
2022-08-04T13:00:39.715Z,38.40
2022-08-04T13:03:12.717Z,38.50
2022-08-04T13:05:43.194Z,38.80
2022-08-04T13:08:13.117Z,38.90
2022-08-04T13:10:45.951Z,39.00
2022-08-04T13:13:18.659Z,39.10
2022-08-04T13:15:57.571Z,38.90
2022-08-04T13:18:30.055Z,38.90
2022-08-04T13:21:19.575Z,38.70
2022-08-04T13:24:10.143Z,38.70
2022-08-04T13:26:54.090Z,39.00
2022-08-04T13:29:59.457Z,39.10
2022-08-04T13:32:18.505Z,39.50
2022-08-04T13:34:49.079Z,39.60
2022-08-04T13:37:26.437Z,39.70
2022-08-04T13:39:56.798Z,39.80
2022-08-04T13:42:28.113Z,39.40
2022-08-04T13:44:58.429Z,39.30
2022-08-04T13:47:29.882Z,39.70
2022-08-04T13:50:11.182Z,39.70
2022-08-04T13:52:39.993Z,40.70
2022-08-04T13:55:09.192Z,41.20
2022-08-04T13:57:46.558Z,41.80
2022-08-04T14:00:16.950Z,42.40
2022-08-04T14:03:03.278Z,42.50
2022-08-04T14:05:59.701Z,43.50
2022-08-04T14:08:25.808Z,43.40
2022-08-04T14:10:58.297Z,43.00
2022-08-04T14:13:41.611Z,43.10
2022-08-04T14:16:17.613Z,43.00
2022-08-04T14:18:46.300Z,43.20
2022-08-04T14:21:16.125Z,43.10
2022-08-04T14:23:48.181Z,43.20
2022-08-04T14:26:18.770Z,43.70
2022-08-04T14:29:25.037Z,43.50
2022-08-04T14:31:36.714Z,43.30
2022-08-04T14:34:27.290Z,43.80
2022-08-04T14:37:17.570Z,44.00
2022-08-04T14:40:19.252Z,43.80
2022-08-04T14:42:43.058Z,43.50
2022-08-04T14:45:13.084Z,43.50
2022-08-04T14:47:52.416Z,43.60
2022-08-04T14:50:22.779Z,43.80
2022-08-04T14:52:50.764Z,43.80
2022-08-04T14:55:21.091Z,44.10
2022-08-04T14:58:36.059Z,44.00
2022-08-04T15:00:38.981Z,44.10
2022-08-04T15:03:09.985Z,44.10
2022-08-04T15:06:02.198Z,44.30
2022-08-04T15:08:30.949Z,44.70
2022-08-04T15:11:02.756Z,45.00
2022-08-04T15:13:31.939Z,44.70
2022-08-04T15:16:07.300Z,45.00
2022-08-04T15:18:37.668Z,44.20
2022-08-04T15:21:07.894Z,44.70
2022-08-04T15:23:39.539Z,44.30
2022-08-04T15:26:11.790Z,44.60
2022-08-04T15:28:42.304Z,44.50
2022-08-04T15:32:08.015Z,44.70
2022-08-04T15:34:00.981Z,44.90
2022-08-04T15:36:37.309Z,45.00
2022-08-04T15:39:23.249Z,45.40
2022-08-04T15:41:59.807Z,45.90
2022-08-04T15:44:49.831Z,46.10
2022-08-04T15:47:19.962Z,45.80
2022-08-04T15:50:04.419Z,45.70
2022-08-04T15:53:12.580Z,45.80
2022-08-04T15:55:43.040Z,44.60
2022-08-04T15:58:13.431Z,44.30
2022-08-04T16:01:16.449Z,44.40
2022-08-04T16:03:58.501Z,44.90
2022-08-04T16:06:50.128Z,44.60
2022-08-04T16:09:45.055Z,44.50
2022-08-04T16:12:57.325Z,45.00
2022-08-04T16:15:45.494Z,45.60
2022-08-04T16:18:26.710Z,45.60
2022-08-04T16:21:03.414Z,44.60
2022-08-04T16:24:02.213Z,44.50
2022-08-04T16:26:54.582Z,44.60
2022-08-04T16:29:38.811Z,45.10
2022-08-04T16:32:16.746Z,45.10
2022-08-04T16:34:54.259Z,45.40
2022-08-04T16:37:34.433Z,45.10
2022-08-04T16:40:36.389Z,44.80
2022-08-04T16:43:08.590Z,45.20
2022-08-04T16:45:50.971Z,45.10
2022-08-04T16:48:21.005Z,45.00
2022-08-04T16:51:05.327Z,44.70
2022-08-04T16:53:52.191Z,44.80
2022-08-04T16:56:30.069Z,44.90
2022-08-04T16:58:58.200Z,44.40
2022-08-04T17:01:34.077Z,44.20
2022-08-04T17:04:06.199Z,44.10
2022-08-04T17:06:35.729Z,43.40
2022-08-04T17:09:08.295Z,43.10
2022-08-04T17:11:36.195Z,42.20
2022-08-04T17:14:06.090Z,41.60
2022-08-04T17:16:36.901Z,41.00
2022-08-04T17:19:06.861Z,40.30
2022-08-04T17:21:48.940Z,39.90
2022-08-04T17:24:18.406Z,39.40
2022-08-04T17:26:53.555Z,39.00
2022-08-04T17:32:15.824Z,38.40
2022-08-04T17:34:48.672Z,38.20
2022-08-04T17:37:38.979Z,37.90
2022-08-04T17:40:11.762Z,37.70
2022-08-04T17:42:41.370Z,37.40
2022-08-04T17:45:50.199Z,37.40
2022-08-04T17:47:58.802Z,37.30
2022-08-04T17:50:27.238Z,37.20
2022-08-04T17:53:02.494Z,37.10
2022-08-04T17:55:42.719Z,37.00
2022-08-04T17:58:21.512Z,37.00
2022-08-04T18:01:24.259Z,36.90
2022-08-04T18:03:53.250Z,36.70
2022-08-04T18:06:25.672Z,36.60
2022-08-04T18:08:59.334Z,36.40
2022-08-04T18:11:54.806Z,36.30
2022-08-04T18:14:28.597Z,36.20
2022-08-04T18:16:56.929Z,36.00
2022-08-04T18:19:25.090Z,35.80
2022-08-04T18:22:00.633Z,35.60
2022-08-04T18:24:34.005Z,35.40
2022-08-04T18:27:06.240Z,35.30
2022-08-04T18:29:39.315Z,35.10
2022-08-04T18:32:08.931Z,35.00
2022-08-04T18:34:40.973Z,34.90
2022-08-04T18:38:06.214Z,34.70
2022-08-04T18:43:03.676Z,34.50
2022-08-04T18:45:34.837Z,34.30
2022-08-04T18:48:04.302Z,34.20
2022-08-04T18:51:09.387Z,34.10
2022-08-04T18:53:35.334Z,34.00
2022-08-04T18:56:06.407Z,33.80
2022-08-04T18:58:49.420Z,33.70
2022-08-04T19:01:17.358Z,33.50
2022-08-04T19:03:48.248Z,33.40
2022-08-04T19:06:27.931Z,33.20
2022-08-04T19:08:55.935Z,33.10
2022-08-04T19:11:38.689Z,33.00
2022-08-04T19:14:14.103Z,32.80
2022-08-04T19:16:46.037Z,32.70
2022-08-04T19:19:17.827Z,32.70
2022-08-04T19:22:00.727Z,32.60
2022-08-04T19:24:34.823Z,32.60
2022-08-04T19:27:08.194Z,32.50
2022-08-04T19:29:40.669Z,32.40
2022-08-04T19:32:13.964Z,32.30
2022-08-04T19:34:46.047Z,32.20
2022-08-04T19:37:20.338Z,32.10
2022-08-04T19:40:04.706Z,32.00
2022-08-04T19:42:32.920Z,31.90
2022-08-04T19:45:02.688Z,31.80
2022-08-04T19:48:17.031Z,31.80
2022-08-04T19:50:18.829Z,31.60
2022-08-04T19:52:52.083Z,31.50
2022-08-04T19:55:22.646Z,31.40
2022-08-04T19:57:50.880Z,31.30
2022-08-04T20:00:33.294Z,31.20
2022-08-04T20:03:02.900Z,31.10
2022-08-04T20:05:34.218Z,31.10
2022-08-04T20:08:19.836Z,31.00
2022-08-04T20:10:51.808Z,31.00
2022-08-04T20:13:20.805Z,31.00
2022-08-04T20:15:58.013Z,30.90
2022-08-04T20:18:34.734Z,30.90
2022-08-04T20:21:03.428Z,30.80
2022-08-04T20:23:48.324Z,30.70
2022-08-04T20:26:18.028Z,30.70
2022-08-04T20:28:51.639Z,30.60
2022-08-04T20:31:21.842Z,30.50
2022-08-04T20:33:53.853Z,30.50
2022-08-04T20:36:23.512Z,30.40
2022-08-04T20:38:52.793Z,30.40
2022-08-04T20:41:21.073Z,30.40
2022-08-04T20:43:50.049Z,30.30
2022-08-04T20:49:09.932Z,30.30
2022-08-04T20:51:40.289Z,30.20
2022-08-04T20:54:16.752Z,30.30
2022-08-04T20:56:51.445Z,30.30
2022-08-04T20:59:19.749Z,30.30
2022-08-04T21:01:48.957Z,30.30
2022-08-04T21:04:43.535Z,30.30
2022-08-04T21:10:02.591Z,30.30
2022-08-04T21:12:31.609Z,30.20
2022-08-04T21:15:13.521Z,30.20
2022-08-04T21:17:59.018Z,30.10
2022-08-04T21:20:33.215Z,30.10
2022-08-04T21:23:05.140Z,30.10
2022-08-04T21:25:42.753Z,30.00
2022-08-04T21:28:11.909Z,30.00
2022-08-04T21:30:53.901Z,30.00
2022-08-04T21:33:22.849Z,30.00
2022-08-04T21:35:54.207Z,30.00
2022-08-04T21:38:25.353Z,30.00
2022-08-04T21:41:01.930Z,30.00
2022-08-04T21:46:18.760Z,29.90
2022-08-04T21:48:48.791Z,29.90
2022-08-04T21:51:57.455Z,29.90
2022-08-04T21:54:09.776Z,29.90
2022-08-04T21:56:43.055Z,29.90
2022-08-04T21:59:28.548Z,29.90
2022-08-04T22:01:59.995Z,29.80
2022-08-04T22:04:28.638Z,29.80
2022-08-04T22:06:57.940Z,29.80
2022-08-04T22:09:31.668Z,29.70
2022-08-04T22:12:11.593Z,29.60
2022-08-04T22:14:40.497Z,29.50
2022-08-04T22:17:13.315Z,29.50
2022-08-04T22:19:55.384Z,29.40
2022-08-04T22:22:29.684Z,29.30
2022-08-04T22:25:01.304Z,29.20
2022-08-04T22:27:55.203Z,29.20
2022-08-04T22:30:24.221Z,29.10
2022-08-04T22:33:01.113Z,29.00
2022-08-04T22:35:36.501Z,29.00
2022-08-04T22:38:26.741Z,28.90
2022-08-04T22:41:01.868Z,28.80
2022-08-04T22:43:31.834Z,28.80
2022-08-04T22:46:03.966Z,28.70
2022-08-04T22:48:33.216Z,28.60
2022-08-04T22:51:01.314Z,28.60
2022-08-04T22:53:32.237Z,28.50
2022-08-04T22:56:09.461Z,28.40
2022-08-04T22:58:44.740Z,28.40
2022-08-04T23:01:15.492Z,28.30
2022-08-04T23:03:51.090Z,28.30
2022-08-04T23:06:24.952Z,28.20
2022-08-04T23:08:54.748Z,28.20
2022-08-04T23:11:22.767Z,28.10
2022-08-04T23:13:50.819Z,28.00
2022-08-04T23:16:19.801Z,28.00
2022-08-04T23:18:48.299Z,28.00
2022-08-04T23:21:17.429Z,27.90
2022-08-04T23:24:02.463Z,27.90
2022-08-04T23:26:31.191Z,27.80
2022-08-04T23:28:59.454Z,27.80
2022-08-04T23:31:40.980Z,27.80
2022-08-04T23:34:19.631Z,27.80
2022-08-04T23:36:47.687Z,27.90
2022-08-04T23:39:16.965Z,27.90
2022-08-04T23:41:53.524Z,28.00
2022-08-04T23:44:25.287Z,28.00
2022-08-04T23:46:59.080Z,28.00
2022-08-04T23:49:43.423Z,28.00
2022-08-04T23:52:23.298Z,28.00
2022-08-04T23:54:59.539Z,28.00
2022-08-04T23:57:31.116Z,28.00
